East Warren, Vermont
Current Conditions -  °F | °C
As of 5:35 PM on Monday 24 Nov 2014 (Local Time) from K6B0 Reporting Station
Scattered Clouds Scattered Clouds  
Wind Chill: 65°   Ceiling: Unl
Heat Index: 65°   Visibility: 10mi
Dew Point: 54°   Wind: 15mph
Humidity: 66%   Direction: 170°S
Pressure: 29.42"   Gusts: 28mph
Location:  44.1108°N, 72.8612°W
Report Text: K6B0 242235Z AUTO 17013G24KT 10SM SCT110 19/12 A2942 RMK AO2 T01860122
Loading
Personal Weather Stations






























Interactive Weather Map New forecast layout! Learn more

10-Day Weather Forecast

Advertisements
Track Severe Weather on mobile